Rechercher aéroport 
image banner adimage banner adimage banner ad
image banner ad

CET9 - Jean Marie River

Situé à Jean Marie River, Canada

ICAO - CET9, IATA -

Données fournies par Airmate  

Information générale

Coordonnées: N61°31'21" W120°37'30"
Élévation : 457 feet MSL.
Variation magnétique : 19.3500° East
Voir autres Aéroports à Northwest Territories

Données opérationnelles

Special qualification required
Heure actuelle UTC:
Heure actuelle locale:
Météo à : CYFS - Fort Simpson ( 42 km )
METAR: CYFS 062200Z VRB02KT 15SM SCT160 BKN180 BKN200 M32/M36 A2981 RMK AC4AC2CI1 SLP129
TAF: TAF CYFS 061740Z 0618/0706 VRB03KT P6SM FEW120 SCT220 RMK NXT FCST BY 070000Z
Voir NOTAMs / SUP AIP / TFR affectant cet aéroport [VIEW]
Fréquences de communication: [VIEW]

Pistes:

Identifiant RWYQFULongueur (ft)Largeur (ft)SurfaceLDA (ft)
11130°251257GRAVE2512
29310°251257GRAVE2512

Coordonnées de l'aéroport

Adresse: Jean Marie River Canada

Vue satellite de CET9